sensor_id;sensor_type;location;lat;lon;timestamp;temperature;humidity
11772;DHT22;12556;55.748;13.194;2024-03-23T00:54:58;4.80;99.90
11772;DHT22;12556;55.748;13.194;2024-03-23T00:57:24;4.80;99.90
11772;DHT22;12556;55.748;13.194;2024-03-23T00:59:50;4.70;99.90
11772;DHT22;12556;55.748;13.194;2024-03-23T01:02:16;4.70;99.90
11772;DHT22;12556;55.748;13.194;2024-03-23T01:04:44;4.70;99.90
11772;DHT22;12556;55.748;13.194;2024-03-23T01:07:10;4.70;99.90
11772;DHT22;12556;55.748;13.194;2024-03-23T01:09:36;4.70;99.90
11772;DHT22;12556;55.748;13.194;2024-03-23T01:12:05;4.70;99.90
11772;DHT22;12556;55.748;13.194;2024-03-23T01:14:32;4.70;99.90
11772;DHT22;12556;55.748;13.194;2024-03-23T01:16:58;4.80;99.90
11772;DHT22;12556;55.748;13.194;2024-03-23T01:19:25;4.80;99.90
11772;DHT22;12556;55.748;13.194;2024-03-23T01:21:51;4.80;99.90
11772;DHT22;12556;55.748;13.194;2024-03-23T01:24:17;4.80;99.90
11772;DHT22;12556;55.748;13.194;2024-03-23T01:26:43;4.90;99.90
11772;DHT22;12556;55.748;13.194;2024-03-23T01:29:11;4.90;99.90
11772;DHT22;12556;55.748;13.194;2024-03-23T01:31:37;4.90;99.90
11772;DHT22;12556;55.748;13.194;2024-03-23T01:34:04;4.90;99.90
11772;DHT22;12556;55.748;13.194;2024-03-23T01:36:30;4.90;99.90
11772;DHT22;12556;55.748;13.194;2024-03-23T01:38:56;5.00;99.90
11772;DHT22;12556;55.748;13.194;2024-03-23T01:41:24;5.00;99.90
11772;DHT22;12556;55.748;13.194;2024-03-23T01:43:51;5.00;99.90
11772;DHT22;12556;55.748;13.194;2024-03-23T01:46:18;5.00;99.90
11772;DHT22;12556;55.748;13.194;2024-03-23T01:48:46;5.00;99.90
11772;DHT22;12556;55.748;13.194;2024-03-23T01:51:12;5.00;99.90
11772;DHT22;12556;55.748;13.194;2024-03-23T01:53:39;5.00;99.90
11772;DHT22;12556;55.748;13.194;2024-03-23T01:56:05;5.00;99.90
11772;DHT22;12556;55.748;13.194;2024-03-23T01:58:32;5.00;99.90
11772;DHT22;12556;55.748;13.194;2024-03-23T02:00:58;5.00;99.90
11772;DHT22;12556;55.748;13.194;2024-03-23T02:03:27;5.10;99.90
11772;DHT22;12556;55.748;13.194;2024-03-23T02:05:53;5.10;99.90
11772;DHT22;12556;55.748;13.194;2024-03-23T02:08:22;5.10;99.90
11772;DHT22;12556;55.748;13.194;2024-03-23T02:10:48;5.10;99.90
11772;DHT22;12556;55.748;13.194;2024-03-23T02:13:17;5.00;99.90
11772;DHT22;12556;55.748;13.194;2024-03-23T02:15:43;5.00;99.90
11772;DHT22;12556;55.748;13.194;2024-03-23T02:18:10;5.00;99.90
11772;DHT22;12556;55.748;13.194;2024-03-23T02:20:37;5.00;99.90
11772;DHT22;12556;55.748;13.194;2024-03-23T02:23:10;5.00;99.90
11772;DHT22;12556;55.748;13.194;2024-03-23T02:25:38;4.90;99.90
11772;DHT22;12556;55.748;13.194;2024-03-23T02:28:05;4.90;99.90
11772;DHT22;12556;55.748;13.194;2024-03-23T02:30:31;4.80;99.90
11772;DHT22;12556;55.748;13.194;2024-03-23T02:32:58;4.80;99.90
11772;DHT22;12556;55.748;13.194;2024-03-23T02:35:23;4.70;99.90
11772;DHT22;12556;55.748;13.194;2024-03-23T02:37:50;4.70;99.90
11772;DHT22;12556;55.748;13.194;2024-03-23T02:40:18;4.60;99.90
11772;DHT22;12556;55.748;13.194;2024-03-23T02:42:45;4.60;99.90
11772;DHT22;12556;55.748;13.194;2024-03-23T02:45:10;4.60;99.90
11772;DHT22;12556;55.748;13.194;2024-03-23T02:47:37;4.50;99.90
11772;DHT22;12556;55.748;13.194;2024-03-23T02:50:04;4.50;99.90
11772;DHT22;12556;55.748;13.194;2024-03-23T02:52:31;4.50;99.90
11772;DHT22;12556;55.748;13.194;2024-03-23T02:54:56;4.50;99.90
11772;DHT22;12556;55.748;13.194;2024-03-23T02:57:25;4.40;99.90
11772;DHT22;12556;55.748;13.194;2024-03-23T02:59:51;4.40;99.90
11772;DHT22;12556;55.748;13.194;2024-03-23T03:02:18;4.40;99.90
11772;DHT22;12556;55.748;13.194;2024-03-23T03:04:43;4.40;99.90
11772;DHT22;12556;55.748;13.194;2024-03-23T03:07:10;4.40;99.90
11772;DHT22;12556;55.748;13.194;2024-03-23T03:09:36;4.40;99.90
11772;DHT22;12556;55.748;13.194;2024-03-23T03:12:04;4.40;99.90
11772;DHT22;12556;55.748;13.194;2024-03-23T03:14:32;4.40;99.90
11772;DHT22;12556;55.748;13.194;2024-03-23T03:16:58;4.40;99.90
11772;DHT22;12556;55.748;13.194;2024-03-23T03:19:24;4.40;99.90
11772;DHT22;12556;55.748;13.194;2024-03-23T03:21:51;4.40;99.90
11772;DHT22;12556;55.748;13.194;2024-03-23T03:24:17;4.30;99.90
11772;DHT22;12556;55.748;13.194;2024-03-23T03:26:44;4.40;99.90
11772;DHT22;12556;55.748;13.194;2024-03-23T03:29:10;4.30;99.90
11772;DHT22;12556;55.748;13.194;2024-03-23T03:31:38;4.30;99.90
11772;DHT22;12556;55.748;13.194;2024-03-23T03:34:04;4.70;99.90
11772;DHT22;12556;55.748;13.194;2024-03-23T03:36:31;4.20;99.90
11772;DHT22;12556;55.748;13.194;2024-03-23T03:38:57;4.20;99.90
11772;DHT22;12556;55.748;13.194;2024-03-23T03:41:24;4.20;99.90
11772;DHT22;12556;55.748;13.194;2024-03-23T03:43:50;4.20;99.90
11772;DHT22;12556;55.748;13.194;2024-03-23T03:46:17;4.20;99.90
11772;DHT22;12556;55.748;13.194;2024-03-23T03:48:44;4.10;99.90
11772;DHT22;12556;55.748;13.194;2024-03-23T03:51:13;4.30;99.90
11772;DHT22;12556;55.748;13.194;2024-03-23T03:53:39;4.10;99.90
11772;DHT22;12556;55.748;13.194;2024-03-23T03:56:06;4.10;99.90
11772;DHT22;12556;55.748;13.194;2024-03-23T03:58:32;4.00;99.90
11772;DHT22;12556;55.748;13.194;2024-03-23T04:00:59;4.00;99.90
11772;DHT22;12556;55.748;13.194;2024-03-23T04:03:25;4.00;99.90
11772;DHT22;12556;55.748;13.194;2024-03-23T04:05:53;4.00;99.90
11772;DHT22;12556;55.748;13.194;2024-03-23T04:08:19;3.90;99.90
11772;DHT22;12556;55.748;13.194;2024-03-23T04:10:46;3.90;99.90
11772;DHT22;12556;55.748;13.194;2024-03-23T04:13:12;3.90;99.90
11772;DHT22;12556;55.748;13.194;2024-03-23T04:15:39;3.90;99.90
11772;DHT22;12556;55.748;13.194;2024-03-23T04:18:05;3.90;99.90
11772;DHT22;12556;55.748;13.194;2024-03-23T04:20:32;3.80;99.90
11772;DHT22;12556;55.748;13.194;2024-03-23T04:22:59;3.80;99.90
11772;DHT22;12556;55.748;13.194;2024-03-23T04:25:26;3.10;99.90
11772;DHT22;12556;55.748;13.194;2024-03-23T04:27:52;3.80;99.90
11772;DHT22;12556;55.748;13.194;2024-03-23T04:30:19;3.80;99.90
11772;DHT22;12556;55.748;13.194;2024-03-23T04:32:45;3.70;99.90
11772;DHT22;12556;55.748;13.194;2024-03-23T04:35:12;3.70;99.90
11772;DHT22;12556;55.748;13.194;2024-03-23T04:37:38;3.70;99.90
11772;DHT22;12556;55.748;13.194;2024-03-23T04:40:09;3.70;99.90
11772;DHT22;12556;55.748;13.194;2024-03-23T04:42:37;3.70;99.90
11772;DHT22;12556;55.748;13.194;2024-03-23T04:45:04;3.70;99.90
11772;DHT22;12556;55.748;13.194;2024-03-23T04:47:32;3.70;99.90
11772;DHT22;12556;55.748;13.194;2024-03-23T04:50:01;3.70;99.90
11772;DHT22;12556;55.748;13.194;2024-03-23T04:52:28;3.70;99.90
11772;DHT22;12556;55.748;13.194;2024-03-23T04:54:55;3.70;99.90
11772;DHT22;12556;55.748;13.194;2024-03-23T04:57:23;3.70;99.90
11772;DHT22;12556;55.748;13.194;2024-03-23T04:59:49;3.70;99.90
11772;DHT22;12556;55.748;13.194;2024-03-23T05:02:16;3.70;99.90
11772;DHT22;12556;55.748;13.194;2024-03-23T05:04:41;3.70;99.90
11772;DHT22;12556;55.748;13.194;2024-03-23T05:07:08;3.70;99.90
11772;DHT22;12556;55.748;13.194;2024-03-23T05:09:34;3.70;99.90
11772;DHT22;12556;55.748;13.194;2024-03-23T05:12:01;3.70;99.90
11772;DHT22;12556;55.748;13.194;2024-03-23T05:14:28;3.70;99.90
11772;DHT22;12556;55.748;13.194;2024-03-23T05:16:55;3.70;99.90
11772;DHT22;12556;55.748;13.194;2024-03-23T05:19:21;3.70;99.90
11772;DHT22;12556;55.748;13.194;2024-03-23T05:21:48;3.70;99.90
11772;DHT22;12556;55.748;13.194;2024-03-23T05:24:15;3.70;99.90
11772;DHT22;12556;55.748;13.194;2024-03-23T05:26:42;3.70;99.90
11772;DHT22;12556;55.748;13.194;2024-03-23T05:29:07;3.80;99.90
11772;DHT22;12556;55.748;13.194;2024-03-23T05:31:37;3.70;99.90
11772;DHT22;12556;55.748;13.194;2024-03-23T05:34:03;3.70;99.90
11772;DHT22;12556;55.748;13.194;2024-03-23T05:36:30;3.70;99.90
11772;DHT22;12556;55.748;13.194;2024-03-23T05:38:58;3.80;99.90
11772;DHT22;12556;55.748;13.194;2024-03-23T05:41:24;3.80;99.90
11772;DHT22;12556;55.748;13.194;2024-03-23T05:43:50;3.80;99.90
11772;DHT22;12556;55.748;13.194;2024-03-23T05:46:17;3.80;99.90
11772;DHT22;12556;55.748;13.194;2024-03-23T05:48:45;3.80;99.90
11772;DHT22;12556;55.748;13.194;2024-03-23T05:51:11;3.80;99.90
11772;DHT22;12556;55.748;13.194;2024-03-23T05:53:38;3.90;99.90
11772;DHT22;12556;55.748;13.194;2024-03-23T05:56:05;3.90;99.90
11772;DHT22;12556;55.748;13.194;2024-03-23T05:58:31;3.90;99.90
11772;DHT22;12556;55.748;13.194;2024-03-23T06:00:58;4.00;99.90
11772;DHT22;12556;55.748;13.194;2024-03-23T06:03:25;4.10;99.90
11772;DHT22;12556;55.748;13.194;2024-03-23T06:05:53;4.20;99.90
11772;DHT22;12556;55.748;13.194;2024-03-23T06:08:19;4.20;99.90
11772;DHT22;12556;55.748;13.194;2024-03-23T06:10:46;4.30;99.90
11772;DHT22;12556;55.748;13.194;2024-03-23T06:13:12;4.30;99.90
11772;DHT22;12556;55.748;13.194;2024-03-23T06:15:39;4.40;99.90
11772;DHT22;12556;55.748;13.194;2024-03-23T06:18:05;4.50;99.90
11772;DHT22;12556;55.748;13.194;2024-03-23T06:20:33;4.50;99.90
11772;DHT22;12556;55.748;13.194;2024-03-23T06:23:00;4.60;99.90
11772;DHT22;12556;55.748;13.194;2024-03-23T06:25:27;4.60;99.90
11772;DHT22;12556;55.748;13.194;2024-03-23T06:27:53;4.60;99.90
11772;DHT22;12556;55.748;13.194;2024-03-23T06:30:20;4.60;99.90
11772;DHT22;12556;55.748;13.194;2024-03-23T06:32:46;4.70;99.90
11772;DHT22;12556;55.748;13.194;2024-03-23T06:35:13;4.70;99.90
11772;DHT22;12556;55.748;13.194;2024-03-23T06:37:39;4.80;99.90
11772;DHT22;12556;55.748;13.194;2024-03-23T06:40:08;4.80;99.90
11772;DHT22;12556;55.748;13.194;2024-03-23T06:42:35;4.90;99.90
11772;DHT22;12556;55.748;13.194;2024-03-23T06:45:02;5.00;99.90
11772;DHT22;12556;55.748;13.194;2024-03-23T06:47:29;4.90;99.90
11772;DHT22;12556;55.748;13.194;2024-03-23T06:49:56;5.00;99.90
11772;DHT22;12556;55.748;13.194;2024-03-23T06:52:21;5.10;99.90
11772;DHT22;12556;55.748;13.194;2024-03-23T06:54:48;5.10;99.90
11772;DHT22;12556;55.748;13.194;2024-03-23T06:57:15;5.20;99.90
11772;DHT22;12556;55.748;13.194;2024-03-23T06:59:42;5.30;99.90
11772;DHT22;12556;55.748;13.194;2024-03-23T07:02:08;5.30;99.90
11772;DHT22;12556;55.748;13.194;2024-03-23T07:04:35;5.40;99.90
11772;DHT22;12556;55.748;13.194;2024-03-23T07:07:01;5.50;99.90
11772;DHT22;12556;55.748;13.194;2024-03-23T07:09:29;5.50;99.90
11772;DHT22;12556;55.748;13.194;2024-03-23T07:11:55;5.60;99.90
11772;DHT22;12556;55.748;13.194;2024-03-23T07:14:24;5.70;99.90
11772;DHT22;12556;55.748;13.194;2024-03-23T07:16:50;5.70;99.90
11772;DHT22;12556;55.748;13.194;2024-03-23T07:19:17;5.80;99.90
11772;DHT22;12556;55.748;13.194;2024-03-23T07:21:43;5.80;99.90
11772;DHT22;12556;55.748;13.194;2024-03-23T07:24:11;5.90;99.90
11772;DHT22;12556;55.748;13.194;2024-03-23T07:26:37;5.90;99.90
11772;DHT22;12556;55.748;13.194;2024-03-23T07:29:04;6.00;99.90
11772;DHT22;12556;55.748;13.194;2024-03-23T07:31:31;6.00;99.90
11772;DHT22;12556;55.748;13.194;2024-03-23T07:33:58;6.10;99.90
11772;DHT22;12556;55.748;13.194;2024-03-23T07:36:24;6.10;99.90
11772;DHT22;12556;55.748;13.194;2024-03-23T07:38:51;6.20;99.90
11772;DHT22;12556;55.748;13.194;2024-03-23T07:41:18;6.20;99.90
11772;DHT22;12556;55.748;13.194;2024-03-23T07:43:45;6.30;99.90
11772;DHT22;12556;55.748;13.194;2024-03-23T07:46:11;6.30;99.90
11772;DHT22;12556;55.748;13.194;2024-03-23T07:48:40;6.40;99.90
11772;DHT22;12556;55.748;13.194;2024-03-23T07:51:09;6.50;99.90
11772;DHT22;12556;55.748;13.194;2024-03-23T07:53:36;6.50;99.90
11772;DHT22;12556;55.748;13.194;2024-03-23T07:56:04;6.60;99.90
11772;DHT22;12556;55.748;13.194;2024-03-23T07:58:31;6.70;99.90
11772;DHT22;12556;55.748;13.194;2024-03-23T08:01:04;6.70;99.90
11772;DHT22;12556;55.748;13.194;2024-03-23T08:03:31;6.70;99.90
11772;DHT22;12556;55.748;13.194;2024-03-23T08:05:58;6.80;99.90
11772;DHT22;12556;55.748;13.194;2024-03-23T08:08:32;6.80;99.90
11772;DHT22;12556;55.748;13.194;2024-03-23T08:10:58;6.90;99.90
11772;DHT22;12556;55.748;13.194;2024-03-23T08:13:25;6.90;99.90
11772;DHT22;12556;55.748;13.194;2024-03-23T08:15:51;7.00;99.90
11772;DHT22;12556;55.748;13.194;2024-03-23T08:18:18;7.10;99.90
11772;DHT22;12556;55.748;13.194;2024-03-23T08:20:44;7.10;99.90
11772;DHT22;12556;55.748;13.194;2024-03-23T08:23:12;7.20;99.90
11772;DHT22;12556;55.748;13.194;2024-03-23T08:25:38;7.30;99.90
11772;DHT22;12556;55.748;13.194;2024-03-23T08:28:05;7.30;99.90
11772;DHT22;12556;55.748;13.194;2024-03-23T08:30:35;7.50;99.90
11772;DHT22;12556;55.748;13.194;2024-03-23T08:33:02;7.60;99.90
11772;DHT22;12556;55.748;13.194;2024-03-23T08:35:27;7.60;99.90
11772;DHT22;12556;55.748;13.194;2024-03-23T08:37:54;7.60;99.90
11772;DHT22;12556;55.748;13.194;2024-03-23T08:40:22;7.60;99.90
11772;DHT22;12556;55.748;13.194;2024-03-23T08:42:48;7.70;99.90
11772;DHT22;12556;55.748;13.194;2024-03-23T08:45:14;7.90;99.90
11772;DHT22;12556;55.748;13.194;2024-03-23T08:47:41;8.00;99.90
11772;DHT22;12556;55.748;13.194;2024-03-23T08:50:08;8.10;99.90
11772;DHT22;12556;55.748;13.194;2024-03-23T08:52:34;8.10;99.90
11772;DHT22;12556;55.748;13.194;2024-03-23T08:55:00;8.20;99.90
11772;DHT22;12556;55.748;13.194;2024-03-23T08:57:29;8.20;99.90
11772;DHT22;12556;55.748;13.194;2024-03-23T08:59:55;8.20;99.90
11772;DHT22;12556;55.748;13.194;2024-03-23T09:02:22;8.40;99.90
11772;DHT22;12556;55.748;13.194;2024-03-23T09:04:48;8.60;99.90
11772;DHT22;12556;55.748;13.194;2024-03-23T09:07:15;8.80;99.90
11772;DHT22;12556;55.748;13.194;2024-03-23T09:09:41;8.90;99.90
11772;DHT22;12556;55.748;13.194;2024-03-23T09:12:08;9.00;99.90
11772;DHT22;12556;55.748;13.194;2024-03-23T09:14:35;9.10;99.90
11772;DHT22;12556;55.748;13.194;2024-03-23T09:17:02;9.30;99.90
11772;DHT22;12556;55.748;13.194;2024-03-23T09:19:28;9.40;99.90
11772;DHT22;12556;55.748;13.194;2024-03-23T09:21:55;9.50;99.90
11772;DHT22;12556;55.748;13.194;2024-03-23T09:24:21;9.60;99.90
11772;DHT22;12556;55.748;13.194;2024-03-23T09:26:48;9.60;99.90
11772;DHT22;12556;55.748;13.194;2024-03-23T09:29:14;9.60;99.90
11772;DHT22;12556;55.748;13.194;2024-03-23T09:31:42;9.60;99.90
11772;DHT22;12556;55.748;13.194;2024-03-23T09:34:08;9.50;99.90
11772;DHT22;12556;55.748;13.194;2024-03-23T09:36:35;9.80;99.90
11772;DHT22;12556;55.748;13.194;2024-03-23T09:39:01;10.00;99.90
11772;DHT22;12556;55.748;13.194;2024-03-23T09:41:29;9.70;99.90
11772;DHT22;12556;55.748;13.194;2024-03-23T09:43:55;10.20;99.90
11772;DHT22;12556;55.748;13.194;2024-03-23T09:46:22;10.30;99.90
11772;DHT22;12556;55.748;13.194;2024-03-23T09:48:49;10.50;99.90
11772;DHT22;12556;55.748;13.194;2024-03-23T09:51:16;10.60;99.90
11772;DHT22;12556;55.748;13.194;2024-03-23T09:53:42;10.70;99.90
11772;DHT22;12556;55.748;13.194;2024-03-23T09:56:09;10.80;99.90
11772;DHT22;12556;55.748;13.194;2024-03-23T09:58:36;10.90;99.90
11772;DHT22;12556;55.748;13.194;2024-03-23T10:01:03;11.20;99.90
11772;DHT22;12556;55.748;13.194;2024-03-23T10:03:33;11.20;99.90
11772;DHT22;12556;55.748;13.194;2024-03-23T10:06:09;11.20;99.90
11772;DHT22;12556;55.748;13.194;2024-03-23T10:08:35;11.20;99.90
11772;DHT22;12556;55.748;13.194;2024-03-23T10:11:13;11.20;99.90
11772;DHT22;12556;55.748;13.194;2024-03-23T10:13:41;11.20;99.90
11772;DHT22;12556;55.748;13.194;2024-03-23T10:16:09;11.00;99.90
11772;DHT22;12556;55.748;13.194;2024-03-23T10:18:37;10.90;99.90
11772;DHT22;12556;55.748;13.194;2024-03-23T10:21:09;10.90;99.90
11772;DHT22;12556;55.748;13.194;2024-03-23T10:23:37;11.00;99.90
11772;DHT22;12556;55.748;13.194;2024-03-23T10:26:16;11.10;99.90
11772;DHT22;12556;55.748;13.194;2024-03-23T10:28:52;11.30;99.90
11772;DHT22;12556;55.748;13.194;2024-03-23T10:31:20;11.50;99.90
11772;DHT22;12556;55.748;13.194;2024-03-23T10:33:46;11.50;99.90
11772;DHT22;12556;55.748;13.194;2024-03-23T10:36:15;11.70;99.90
11772;DHT22;12556;55.748;13.194;2024-03-23T10:38:42;11.80;99.90
11772;DHT22;12556;55.748;13.194;2024-03-23T10:41:10;11.90;99.90
11772;DHT22;12556;55.748;13.194;2024-03-23T10:43:37;11.70;99.90
11772;DHT22;12556;55.748;13.194;2024-03-23T10:46:03;11.70;99.90
11772;DHT22;12556;55.748;13.194;2024-03-23T10:48:30;11.70;99.90
11772;DHT22;12556;55.748;13.194;2024-03-23T10:50:57;11.70;99.90
11772;DHT22;12556;55.748;13.194;2024-03-23T10:53:27;11.60;99.90
11772;DHT22;12556;55.748;13.194;2024-03-23T10:55:54;11.60;99.90
11772;DHT22;12556;55.748;13.194;2024-03-23T10:58:26;11.70;99.90
11772;DHT22;12556;55.748;13.194;2024-03-23T11:00:53;11.80;99.90
11772;DHT22;12556;55.748;13.194;2024-03-23T11:03:30;11.80;99.90
11772;DHT22;12556;55.748;13.194;2024-03-23T11:05:56;11.70;99.90
11772;DHT22;12556;55.748;13.194;2024-03-23T11:08:32;11.60;99.90
11772;DHT22;12556;55.748;13.194;2024-03-23T11:11:16;11.40;99.90
11772;DHT22;12556;55.748;13.194;2024-03-23T11:13:43;11.50;99.90
11772;DHT22;12556;55.748;13.194;2024-03-23T11:16:14;11.50;99.90
11772;DHT22;12556;55.748;13.194;2024-03-23T11:18:41;11.70;99.90
11772;DHT22;12556;55.748;13.194;2024-03-23T11:21:07;11.90;99.90
11772;DHT22;12556;55.748;13.194;2024-03-23T11:23:36;12.00;99.90
11772;DHT22;12556;55.748;13.194;2024-03-23T11:26:02;12.00;99.90
11772;DHT22;12556;55.748;13.194;2024-03-23T11:28:30;12.00;99.90
11772;DHT22;12556;55.748;13.194;2024-03-23T11:30:56;11.90;99.90
11772;DHT22;12556;55.748;13.194;2024-03-23T11:33:23;11.70;99.90
11772;DHT22;12556;55.748;13.194;2024-03-23T11:35:49;11.50;99.90
11772;DHT22;12556;55.748;13.194;2024-03-23T11:38:17;11.30;99.90
11772;DHT22;12556;55.748;13.194;2024-03-23T11:40:47;11.10;99.90
11772;DHT22;12556;55.748;13.194;2024-03-23T11:43:15;11.10;99.90
11772;DHT22;12556;55.748;13.194;2024-03-23T11:45:43;11.00;99.90
11772;DHT22;12556;55.748;13.194;2024-03-23T11:48:11;10.80;99.90
11772;DHT22;12556;55.748;13.194;2024-03-23T11:50:39;10.80;99.90
11772;DHT22;12556;55.748;13.194;2024-03-23T11:53:15;10.50;99.90
11772;DHT22;12556;55.748;13.194;2024-03-23T11:55:47;10.30;99.90
11772;DHT22;12556;55.748;13.194;2024-03-23T11:58:14;10.00;99.90
11772;DHT22;12556;55.748;13.194;2024-03-23T12:00:41;9.90;99.90
11772;DHT22;12556;55.748;13.194;2024-03-23T12:03:08;9.90;99.90
11772;DHT22;12556;55.748;13.194;2024-03-23T12:05:36;9.90;99.90
11772;DHT22;12556;55.748;13.194;2024-03-23T12:08:17;9.90;99.90
11772;DHT22;12556;55.748;13.194;2024-03-23T12:10:47;9.90;99.90
11772;DHT22;12556;55.748;13.194;2024-03-23T12:13:16;10.00;99.90
11772;DHT22;12556;55.748;13.194;2024-03-23T12:15:43;10.00;99.90
11772;DHT22;12556;55.748;13.194;2024-03-23T12:18:10;10.00;99.90
11772;DHT22;12556;55.748;13.194;2024-03-23T12:20:37;10.00;99.90
11772;DHT22;12556;55.748;13.194;2024-03-23T12:23:08;10.00;99.90
11772;DHT22;12556;55.748;13.194;2024-03-23T12:25:35;9.90;99.90
11772;DHT22;12556;55.748;13.194;2024-03-23T12:28:04;9.90;99.90
11772;DHT22;12556;55.748;13.194;2024-03-23T12:30:32;9.70;99.90
11772;DHT22;12556;55.748;13.194;2024-03-23T12:32:59;9.70;99.90
11772;DHT22;12556;55.748;13.194;2024-03-23T12:35:25;9.90;99.90
11772;DHT22;12556;55.748;13.194;2024-03-23T12:37:52;10.20;99.90
11772;DHT22;12556;55.748;13.194;2024-03-23T12:40:17;10.50;99.90
11772;DHT22;12556;55.748;13.194;2024-03-23T12:42:45;10.70;99.90
11772;DHT22;12556;55.748;13.194;2024-03-23T12:45:12;10.90;99.90
11772;DHT22;12556;55.748;13.194;2024-03-23T12:47:39;10.70;99.90
11772;DHT22;12556;55.748;13.194;2024-03-23T12:50:05;10.60;99.90
11772;DHT22;12556;55.748;13.194;2024-03-23T12:52:32;10.50;99.90
11772;DHT22;12556;55.748;13.194;2024-03-23T12:54:58;10.30;99.90
11772;DHT22;12556;55.748;13.194;2024-03-23T12:57:25;10.20;99.90
11772;DHT22;12556;55.748;13.194;2024-03-23T12:59:52;10.10;99.90
11772;DHT22;12556;55.748;13.194;2024-03-23T13:02:20;10.00;99.90
11772;DHT22;12556;55.748;13.194;2024-03-23T13:04:49;9.80;99.90
11772;DHT22;12556;55.748;13.194;2024-03-23T13:07:16;9.80;99.90
11772;DHT22;12556;55.748;13.194;2024-03-23T13:09:45;9.70;99.90
11772;DHT22;12556;55.748;13.194;2024-03-23T13:12:12;9.60;99.90
11772;DHT22;12556;55.748;13.194;2024-03-23T13:14:38;9.60;99.90
11772;DHT22;12556;55.748;13.194;2024-03-23T13:17:05;9.40;99.90
11772;DHT22;12556;55.748;13.194;2024-03-23T13:19:32;9.30;99.90
11772;DHT22;12556;55.748;13.194;2024-03-23T13:22:00;9.10;99.90
11772;DHT22;12556;55.748;13.194;2024-03-23T13:24:27;8.80;99.90
11772;DHT22;12556;55.748;13.194;2024-03-23T13:26:54;8.60;99.90
11772;DHT22;12556;55.748;13.194;2024-03-23T13:29:21;8.40;99.90
11772;DHT22;12556;55.748;13.194;2024-03-23T13:31:49;8.30;99.90
11772;DHT22;12556;55.748;13.194;2024-03-23T13:34:15;8.20;99.90
11772;DHT22;12556;55.748;13.194;2024-03-23T13:36:44;8.20;99.90
11772;DHT22;12556;55.748;13.194;2024-03-23T13:39:10;8.00;99.90
11772;DHT22;12556;55.748;13.194;2024-03-23T13:41:38;8.00;99.90
11772;DHT22;12556;55.748;13.194;2024-03-23T13:44:05;7.80;99.90
11772;DHT22;12556;55.748;13.194;2024-03-23T13:46:31;7.70;99.90
11772;DHT22;12556;55.748;13.194;2024-03-23T13:48:57;7.80;99.90
11772;DHT22;12556;55.748;13.194;2024-03-23T13:51:25;7.90;99.90
11772;DHT22;12556;55.748;13.194;2024-03-23T13:53:54;8.20;99.90
11772;DHT22;12556;55.748;13.194;2024-03-23T13:56:22;8.40;99.90
11772;DHT22;12556;55.748;13.194;2024-03-23T13:58:47;8.70;99.90
11772;DHT22;12556;55.748;13.194;2024-03-23T14:01:15;8.90;99.90
11772;DHT22;12556;55.748;13.194;2024-03-23T14:03:41;9.10;99.90
11772;DHT22;12556;55.748;13.194;2024-03-23T14:06:08;9.30;99.90
11772;DHT22;12556;55.748;13.194;2024-03-23T14:08:34;9.40;99.90
11772;DHT22;12556;55.748;13.194;2024-03-23T14:11:03;9.40;99.90
11772;DHT22;12556;55.748;13.194;2024-03-23T14:13:30;9.50;99.90
11772;DHT22;12556;55.748;13.194;2024-03-23T14:15:57;9.50;99.90
11772;DHT22;12556;55.748;13.194;2024-03-23T14:18:23;9.50;99.90
11772;DHT22;12556;55.748;13.194;2024-03-23T14:20:50;9.50;99.90
11772;DHT22;12556;55.748;13.194;2024-03-23T14:23:16;9.50;99.90
11772;DHT22;12556;55.748;13.194;2024-03-23T14:25:43;9.50;99.90
11772;DHT22;12556;55.748;13.194;2024-03-23T14:28:10;9.40;99.90
11772;DHT22;12556;55.748;13.194;2024-03-23T14:30:41;9.20;99.90
11772;DHT22;12556;55.748;13.194;2024-03-23T14:33:07;9.00;99.90
11772;DHT22;12556;55.748;13.194;2024-03-23T14:35:34;8.80;99.90
11772;DHT22;12556;55.748;13.194;2024-03-23T14:38:01;8.70;99.90
11772;DHT22;12556;55.748;13.194;2024-03-23T14:40:28;8.60;99.90
11772;DHT22;12556;55.748;13.194;2024-03-23T14:42:54;8.50;99.90
11772;DHT22;12556;55.748;13.194;2024-03-23T14:45:23;8.40;99.90
11772;DHT22;12556;55.748;13.194;2024-03-23T14:47:50;8.40;99.90
11772;DHT22;12556;55.748;13.194;2024-03-23T14:50:16;8.30;99.90
11772;DHT22;12556;55.748;13.194;2024-03-23T14:52:44;8.20;99.90
11772;DHT22;12556;55.748;13.194;2024-03-23T14:55:12;8.30;99.90
11772;DHT22;12556;55.748;13.194;2024-03-23T14:57:37;8.20;99.90
11772;DHT22;12556;55.748;13.194;2024-03-23T15:00:07;8.20;99.90
11772;DHT22;12556;55.748;13.194;2024-03-23T15:02:34;8.10;99.90
11772;DHT22;12556;55.748;13.194;2024-03-23T15:05:01;8.10;99.90
11772;DHT22;12556;55.748;13.194;2024-03-23T15:07:29;8.00;99.90
11772;DHT22;12556;55.748;13.194;2024-03-23T15:09:56;8.00;99.90
11772;DHT22;12556;55.748;13.194;2024-03-23T15:12:21;8.10;99.90
11772;DHT22;12556;55.748;13.194;2024-03-23T15:14:48;8.20;99.90
11772;DHT22;12556;55.748;13.194;2024-03-23T15:17:14;8.30;99.90
11772;DHT22;12556;55.748;13.194;2024-03-23T15:19:43;8.40;99.90
11772;DHT22;12556;55.748;13.194;2024-03-23T15:22:08;8.50;99.90
11772;DHT22;12556;55.748;13.194;2024-03-23T15:24:36;8.50;99.90
11772;DHT22;12556;55.748;13.194;2024-03-23T15:27:02;8.40;99.90
11772;DHT22;12556;55.748;13.194;2024-03-23T15:29:29;8.30;99.90
11772;DHT22;12556;55.748;13.194;2024-03-23T15:31:55;8.20;99.90
11772;DHT22;12556;55.748;13.194;2024-03-23T15:34:22;8.10;99.90
11772;DHT22;12556;55.748;13.194;2024-03-23T15:36:49;8.00;99.90
11772;DHT22;12556;55.748;13.194;2024-03-23T15:39:17;7.80;99.90
11772;DHT22;12556;55.748;13.194;2024-03-23T15:41:44;7.70;99.90
11772;DHT22;12556;55.748;13.194;2024-03-23T15:44:11;7.60;99.90
11772;DHT22;12556;55.748;13.194;2024-03-23T15:46:37;7.50;99.90
11772;DHT22;12556;55.748;13.194;2024-03-23T15:49:04;7.40;99.90
11772;DHT22;12556;55.748;13.194;2024-03-23T15:51:30;7.30;99.90
11772;DHT22;12556;55.748;13.194;2024-03-23T15:54:00;7.30;99.90
11772;DHT22;12556;55.748;13.194;2024-03-23T15:56:28;7.40;99.90
11772;DHT22;12556;55.748;13.194;2024-03-23T15:58:54;7.30;99.90
11772;DHT22;12556;55.748;13.194;2024-03-23T16:01:21;7.40;99.90
11772;DHT22;12556;55.748;13.194;2024-03-23T16:03:47;7.30;99.90
11772;DHT22;12556;55.748;13.194;2024-03-23T16:06:14;7.30;99.90
11772;DHT22;12556;55.748;13.194;2024-03-23T16:08:40;7.30;99.90
11772;DHT22;12556;55.748;13.194;2024-03-23T16:11:08;7.20;99.90
11772;DHT22;12556;55.748;13.194;2024-03-23T16:13:34;7.20;99.90
11772;DHT22;12556;55.748;13.194;2024-03-23T16:16:02;7.20;99.90
11772;DHT22;12556;55.748;13.194;2024-03-23T16:18:29;7.10;99.90
11772;DHT22;12556;55.748;13.194;2024-03-23T16:20:57;7.00;99.90